Upland, PA

6:39 PM EST on January 20, 2017 (GMT -0500)
Wallingford PA | | Change Station
Active Advisory: Gale Watch

Elev 90 ft 39.87 °N, 75.37 °W | Updated 7 minutes ago

Overcast
Overcast
41.2 °F
Feels Like 41 °F
N
0.0
Wind Variable Wind from North
Gusts 0.0 mph

Today
High -- | Low -- °F
--% Chance of Precip.
Yesterday
High -- | Low -- °F
Precip. -- in
Pressure 29.92 in
Visibility 6.0 miles
Clouds Mostly Cloudy 2600 ft
Overcast 4200 ft
Windchill 41 °F
Dew Point 37 °F
Humidity 84%
Rainfall 0.20 in
Snow Depth Not available.
7:18 AM 5:07 PM
Last Quarter, 40% visible
METAR KPHL 202254Z 00000KT 6SM BR BKN026 OVC042 05/04 A2992 RMK AO2 SLP132 T00500039
Pressure 29.92 in
Visibility 6.0 miles
Clouds Mostly Cloudy 2600 ft
Overcast 4200 ft
Windchill 41 °F
Dew Point 37 °F
Humidity 84%
Rainfall 0.20 in
Snow Depth Not available.
7:18 AM 5:07 PM
Last Quarter, 40% visible
METAR KPHL 202254Z 00000KT 6SM BR BKN026 OVC042 05/04 A2992 RMK AO2 SLP132 T00500039

Get Your Daily Forecast Email!

Thanks for signing up!

Be on the lookout for a verification email in your inbox.

You'll start receiving the daily forecast at 8 AM.

×

10-Day Weather Forecast

Almanac

Astronomy

Jan. 20, 2017 Rise Set
Actual Time
Civil Twilight
Nautical Twilight
Astronomical Twilight
Moon
Length of Visible Light
Length of Day
Tomorrow will be .
, % of the Moon is Illuminated

Today's Extremes

State Highs State Lows

Community

WunderPhotos

Upload Photos

1,962,540 photos uploaded!

WunderBlog® & News

Nearby

Air Quality

  Air Quality AQ Index Pollutant
Not available.

Snow Depth

Station Depth Elevation

Earthquake Activity

City Distance Mag. Time & Date
Minimum magnitude displayed is 2.5.

Coastal Water Temperatures

Place Temperature

Stations

Nearby Weather Stations

Station Location Temp. Windchill Dew Point Humidity Wind Precip. Elev Updated Type
                   

Watches & Warnings

Gale Watch
Issued: 3:35 PM EST Jan. 20, 2017 – National Weather Service

... Gale watch in effect from late Sunday night through Monday
afternoon...

The National Weather Service in Mount Holly has issued a gale
watch... which is in effect from late Sunday night through Monday
afternoon.

* Location... the coastal ocean waters of southern New Jersey and
Delaware and Delaware Bay.

* Winds... east 20 to 30 kt with gusts up to 45 kt.

* Seas... 7 to 12 feet on the ocean waters.

* Timing... winds increase late Sunday night... and then the
strongest winds are expected on Monday... possibly lingering
into Monday night.

Precautionary/preparedness actions...

A gale watch is issued when the risk of gale force winds of 34 to
47 knots has significantly increased... but the specific timing
and/or location is still uncertain. It is intended to provide
additional lead time for mariners who may wish to consider
altering their plans.